createdAt,value
2022-08-05T00:04:56.586Z,3.47
2022-08-05T00:09:58.068Z,3.70
2022-08-05T00:15:00.127Z,3.67
2022-08-05T00:20:21.526Z,3.78
2022-08-05T00:25:23.062Z,3.30
2022-08-05T00:30:29.312Z,3.92
2022-08-05T00:35:33.841Z,4.18
2022-08-05T00:40:53.338Z,4.03
2022-08-05T00:45:55.258Z,3.72
2022-08-05T00:50:56.724Z,3.92
2022-08-05T00:55:58.143Z,3.92
2022-08-05T01:00:59.697Z,3.75
2022-08-05T01:06:02.605Z,3.67
2022-08-05T01:11:22.567Z,3.95
2022-08-05T01:16:54.074Z,4.00
2022-08-05T01:22:18.677Z,3.63
2022-08-05T01:27:50.863Z,4.28
2022-08-05T01:32:59.574Z,3.75
2022-08-05T01:38:04.326Z,4.15
2022-08-05T01:43:07.180Z,4.70
2022-08-05T01:48:26.484Z,4.88
2022-08-05T01:53:57.483Z,4.05
2022-08-05T01:58:52.515Z,4.60
2022-08-05T02:03:56.838Z,4.57
2022-08-05T02:08:59.441Z,4.88
2022-08-05T02:14:12.421Z,5.30
2022-08-05T02:19:33.506Z,5.72
2022-08-05T02:24:39.017Z,5.30
2022-08-05T02:29:58.451Z,5.40
2022-08-05T02:35:14.240Z,4.50
2022-08-05T02:40:17.330Z,5.00
2022-08-05T02:45:20.272Z,4.05
2022-08-05T02:50:27.571Z,5.03
2022-08-05T02:55:54.046Z,5.63
2022-08-05T03:00:58.839Z,5.53
2022-08-05T03:06:56.097Z,4.82
2022-08-05T03:11:56.126Z,6.13
2022-08-05T03:16:46.764Z,4.88
2022-08-05T03:21:50.066Z,6.15
2022-08-05T03:26:51.743Z,5.57
2022-08-05T03:31:57.150Z,5.97
2022-08-05T03:37:02.884Z,6.28
2022-08-05T03:42:04.610Z,6.88
2022-08-05T03:47:06.043Z,6.30
2022-08-05T03:52:37.117Z,7.15
2022-08-05T03:57:41.620Z,7.00
2022-08-05T04:02:57.685Z,7.50
2022-08-05T04:08:03.458Z,8.55
2022-08-05T04:13:07.896Z,7.70
2022-08-05T04:18:12.742Z,8.20
2022-08-05T04:24:04.979Z,7.88
2022-08-05T04:28:51.841Z,7.25
2022-08-05T04:34:17.165Z,8.20
2022-08-05T04:39:15.169Z,7.18
2022-08-05T04:44:29.002Z,7.97
2022-08-05T04:49:38.849Z,8.05
2022-08-05T04:54:52.708Z,9.10
2022-08-05T04:59:54.138Z,8.50
2022-08-05T05:05:02.264Z,8.57
2022-08-05T05:10:06.515Z,8.32
2022-08-05T05:15:10.794Z,7.55
2022-08-05T05:20:13.759Z,8.38
2022-08-05T05:25:16.682Z,9.02
2022-08-05T05:30:29.508Z,7.82
2022-08-05T05:35:37.807Z,8.80
2022-08-05T05:40:43.852Z,8.88
2022-08-05T05:45:51.607Z,7.85
2022-08-05T05:50:53.013Z,7.63
2022-08-05T05:56:01.398Z,7.15
2022-08-05T06:01:12.912Z,6.63
2022-08-05T06:06:14.660Z,6.50
2022-08-05T06:11:16.047Z,6.78
2022-08-05T06:16:29.109Z,6.28
2022-08-05T06:21:37.210Z,6.80
2022-08-05T06:26:51.770Z,6.20
2022-08-05T06:31:53.920Z,5.85
2022-08-05T06:36:57.974Z,6.47
2022-08-05T06:42:04.842Z,5.45
2022-08-05T06:47:06.284Z,5.10
2022-08-05T06:52:36.417Z,5.75
2022-08-05T06:58:02.981Z,5.80
2022-08-05T07:02:54.726Z,5.07
2022-08-05T07:07:56.165Z,4.20
2022-08-05T07:13:16.161Z,4.40
2022-08-05T07:18:37.609Z,3.75
2022-08-05T07:23:50.018Z,4.63
2022-08-05T07:28:53.768Z,4.65
2022-08-05T07:33:55.238Z,4.28
2022-08-05T07:39:05.651Z,4.97
2022-08-05T07:44:14.014Z,4.03
2022-08-05T07:49:16.103Z,4.47
2022-08-05T07:54:21.944Z,4.38
2022-08-05T07:59:39.017Z,4.57
2022-08-05T08:04:42.087Z,4.18
2022-08-05T08:09:46.937Z,4.50
2022-08-05T08:14:49.870Z,4.00
2022-08-05T08:20:43.557Z,4.28
2022-08-05T08:25:15.901Z,4.00
2022-08-05T08:30:32.416Z,4.15
2022-08-05T08:35:40.984Z,4.03
2022-08-05T08:40:50.507Z,4.70
2022-08-05T08:45:54.361Z,4.78
2022-08-05T08:51:21.954Z,4.70
2022-08-05T08:56:18.117Z,4.15
2022-08-05T09:01:20.288Z,3.83
2022-08-05T09:06:24.223Z,4.50
2022-08-05T09:11:51.071Z,4.57
2022-08-05T09:16:55.389Z,4.20
2022-08-05T09:22:21.889Z,5.38
2022-08-05T09:28:04.051Z,4.63
2022-08-05T09:33:02.494Z,4.60
2022-08-05T09:38:12.672Z,4.28
2022-08-05T09:43:40.487Z,4.18
2022-08-05T09:48:43.425Z,4.50
2022-08-05T09:54:08.452Z,3.95
2022-08-05T09:59:17.252Z,4.35
2022-08-05T10:04:18.839Z,3.88
2022-08-05T10:09:30.733Z,2.63
2022-08-05T10:14:46.931Z,3.28
2022-08-05T10:20:03.972Z,3.13
2022-08-05T10:25:10.701Z,2.90
2022-08-05T10:32:47.905Z,2.40
2022-08-05T10:35:40.590Z,2.05
2022-08-05T10:40:58.026Z,2.40
2022-08-05T10:46:06.549Z,2.13
2022-08-05T10:51:22.037Z,2.40
2022-08-05T10:56:30.059Z,3.00
2022-08-05T11:01:55.319Z,2.92
2022-08-05T11:07:04.467Z,2.90
2022-08-05T11:12:26.628Z,3.35
2022-08-05T11:18:09.525Z,3.28
2022-08-05T11:22:54.071Z,2.65
2022-08-05T11:28:17.113Z,3.10
2022-08-05T11:33:26.226Z,4.82
2022-08-05T11:38:51.251Z,4.43
2022-08-05T11:44:07.335Z,3.72
2022-08-05T11:49:13.482Z,3.92
2022-08-05T11:54:32.800Z,4.05
2022-08-05T11:59:49.840Z,4.03
2022-08-05T12:04:59.056Z,3.88
2022-08-05T12:10:09.615Z,3.58
2022-08-05T12:15:35.895Z,3.42
2022-08-05T12:20:41.351Z,2.95
2022-08-05T12:25:53.604Z,3.88
2022-08-05T12:31:02.381Z,3.25
2022-08-05T12:36:07.173Z,3.80
2022-08-05T12:41:13.414Z,3.60
2022-08-05T12:46:29.067Z,3.03
2022-08-05T12:52:14.355Z,3.30
2022-08-05T12:57:03.712Z,2.80
2022-08-05T13:02:08.180Z,2.80
2022-08-05T13:07:16.030Z,2.05
2022-08-05T13:12:20.722Z,2.38
2022-08-05T13:17:41.246Z,1.67
2022-08-05T13:22:48.735Z,1.70
2022-08-05T13:27:52.979Z,1.75
2022-08-05T13:32:54.451Z,1.70
2022-08-05T13:37:57.970Z,1.50
2022-08-05T13:43:12.067Z,1.38
2022-08-05T13:48:57.601Z,1.10
2022-08-05T13:53:35.522Z,1.55
2022-08-05T13:58:51.328Z,1.10
2022-08-05T14:04:13.607Z,1.20
2022-08-05T14:09:16.098Z,0.70
2022-08-05T14:14:23.707Z,1.00
2022-08-05T14:19:27.557Z,1.03
2022-08-05T14:24:30.547Z,0.88
2022-08-05T14:29:32.776Z,0.88
2022-08-05T14:34:35.885Z,0.90
2022-08-05T14:39:49.258Z,0.98
2022-08-05T14:44:52.051Z,0.80
2022-08-05T14:49:56.253Z,0.80
2022-08-05T14:55:01.313Z,0.77
2022-08-05T15:00:03.037Z,0.90
2022-08-05T15:05:08.538Z,1.00
2022-08-05T15:10:14.877Z,0.70
2022-08-05T15:15:16.847Z,0.80
2022-08-05T15:20:38.825Z,0.60
2022-08-05T15:25:41.226Z,0.90
2022-08-05T15:30:54.910Z,0.70
2022-08-05T15:35:56.305Z,0.70
2022-08-05T15:41:20.730Z,0.55
2022-08-05T15:46:21.031Z,0.60
2022-08-05T15:52:13.398Z,0.85
2022-08-05T15:56:48.847Z,0.60
2022-08-05T16:01:52.885Z,0.85
2022-08-05T16:06:55.796Z,0.60
2022-08-05T16:11:57.743Z,0.70
2022-08-05T16:16:59.337Z,0.75
2022-08-05T16:22:03.468Z,0.43
2022-08-05T16:27:07.330Z,0.60
2022-08-05T16:32:09.733Z,0.70
2022-08-05T16:38:02.565Z,0.65
2022-08-05T16:42:33.181Z,0.77
2022-08-05T16:47:36.296Z,0.75
2022-08-05T16:52:49.995Z,0.70
2022-08-05T16:57:53.160Z,0.60
2022-08-05T17:03:02.909Z,0.90
2022-08-05T17:08:05.270Z,0.68
2022-08-05T17:13:16.913Z,0.57
2022-08-05T17:18:22.598Z,0.70
2022-08-05T17:24:03.562Z,0.70
2022-08-05T17:28:47.152Z,0.60
2022-08-05T17:33:51.425Z,0.80
2022-08-05T17:38:52.970Z,0.63
2022-08-05T17:43:54.482Z,0.70
2022-08-05T17:48:55.975Z,0.88
2022-08-05T17:53:59.732Z,0.90
2022-08-05T17:59:01.588Z,0.55
2022-08-05T18:04:05.917Z,0.70
2022-08-05T18:09:14.630Z,0.75
2022-08-05T18:14:20.595Z,0.82
2022-08-05T18:19:25.943Z,0.70
2022-08-05T18:24:27.654Z,0.95
2022-08-05T18:29:40.349Z,0.80
2022-08-05T18:34:42.862Z,0.70
2022-08-05T18:40:57.610Z,0.75
2022-08-05T18:45:06.369Z,0.63
2022-08-05T18:50:45.136Z,0.80
2022-08-05T18:55:48.566Z,0.65
2022-08-05T19:00:50.152Z,0.70
2022-08-05T19:06:12.384Z,0.95
2022-08-05T19:11:13.233Z,0.82
2022-08-05T19:16:25.272Z,0.80
2022-08-05T19:21:34.751Z,0.70
2022-08-05T19:26:54.174Z,0.80
2022-08-05T19:31:57.389Z,1.02
2022-08-05T19:36:58.983Z,0.85
2022-08-05T19:42:07.363Z,0.90
2022-08-05T19:47:10.635Z,0.80
2022-08-05T19:52:29.306Z,0.80
2022-08-05T19:57:46.512Z,0.70
2022-08-05T20:02:54.969Z,1.02
2022-08-05T20:07:58.917Z,0.73
2022-08-05T20:13:00.632Z,0.93
2022-08-05T20:18:02.138Z,1.25
2022-08-05T20:23:04.797Z,1.08
2022-08-05T20:28:07.683Z,0.90
2022-08-05T20:33:14.997Z,1.02
2022-08-05T20:38:22.879Z,1.30
2022-08-05T20:43:32.307Z,1.00
2022-08-05T20:48:51.259Z,1.20
2022-08-05T20:53:56.761Z,1.08
2022-08-05T20:58:59.944Z,1.23
2022-08-05T21:04:12.620Z,1.42
2022-08-05T21:09:15.745Z,1.40
2022-08-05T21:14:17.196Z,1.25
2022-08-05T21:19:20.434Z,1.33
2022-08-05T21:24:24.935Z,1.45
2022-08-05T21:29:31.513Z,1.10
2022-08-05T21:34:35.545Z,1.27
2022-08-05T21:39:40.481Z,1.20
2022-08-05T21:44:42.313Z,1.40
2022-08-05T21:49:58.584Z,1.20
2022-08-05T21:55:06.947Z,1.60
2022-08-05T22:00:11.725Z,1.60
2022-08-05T22:05:13.380Z,1.15
2022-08-05T22:10:18.235Z,1.25
2022-08-05T22:16:01.875Z,1.60
2022-08-05T22:20:51.614Z,1.20
2022-08-05T22:26:12.318Z,1.58
2022-08-05T22:31:16.616Z,1.80
2022-08-05T22:36:18.081Z,1.50
2022-08-05T22:41:26.339Z,1.55
2022-08-05T22:46:42.726Z,1.38
2022-08-05T22:52:04.498Z,1.50
2022-08-05T22:57:09.177Z,1.30
2022-08-05T23:02:10.803Z,1.30
2022-08-05T23:07:12.243Z,1.50
2022-08-05T23:12:16.200Z,1.42
2022-08-05T23:17:24.621Z,1.30
2022-08-05T23:22:36.523Z,1.30
2022-08-05T23:27:42.465Z,1.40
2022-08-05T23:38:01.563Z,1.50
2022-08-05T23:43:02.981Z,1.80
2022-08-05T23:48:26.357Z,1.50
2022-08-05T23:53:28.565Z,1.75
2022-08-05T23:58:48.471Z,1.63
